sensor_id;sensor_type;location;lat;lon;timestamp;temperature;humidity
21799;DHT22;24973;47.178;15.316;2023-02-02T00:00:49;5.50;99.00
21799;DHT22;24973;47.178;15.316;2023-02-02T00:03:38;5.20;99.00
21799;DHT22;24973;47.178;15.316;2023-02-02T00:06:28;5.30;99.90
21799;DHT22;24973;47.178;15.316;2023-02-02T00:09:19;5.40;99.90
21799;DHT22;24973;47.178;15.316;2023-02-02T00:12:08;5.40;99.90
21799;DHT22;24973;47.178;15.316;2023-02-02T00:14:58;5.30;99.90
21799;DHT22;24973;47.178;15.316;2023-02-02T00:17:47;5.30;99.90
21799;DHT22;24973;47.178;15.316;2023-02-02T00:20:36;5.30;99.90
21799;DHT22;24973;47.178;15.316;2023-02-02T00:23:24;5.30;99.90
21799;DHT22;24973;47.178;15.316;2023-02-02T00:26:14;5.30;99.90
21799;DHT22;24973;47.178;15.316;2023-02-02T00:29:04;5.30;99.90
21799;DHT22;24973;47.178;15.316;2023-02-02T00:31:55;5.30;99.90
21799;DHT22;24973;47.178;15.316;2023-02-02T00:34:44;5.30;99.90
21799;DHT22;24973;47.178;15.316;2023-02-02T00:37:33;5.30;99.90
21799;DHT22;24973;47.178;15.316;2023-02-02T00:40:21;5.30;99.90
21799;DHT22;24973;47.178;15.316;2023-02-02T00:43:10;5.10;99.90
21799;DHT22;24973;47.178;15.316;2023-02-02T00:45:59;5.20;99.90
21799;DHT22;24973;47.178;15.316;2023-02-02T00:48:48;5.00;99.90
21799;DHT22;24973;47.178;15.316;2023-02-02T00:51:37;4.90;99.90
21799;DHT22;24973;47.178;15.316;2023-02-02T00:54:26;4.90;99.90
21799;DHT22;24973;47.178;15.316;2023-02-02T00:57:15;4.90;99.90
21799;DHT22;24973;47.178;15.316;2023-02-02T01:00:05;4.90;99.90
21799;DHT22;24973;47.178;15.316;2023-02-02T01:02:55;4.80;99.90
21799;DHT22;24973;47.178;15.316;2023-02-02T01:05:51;4.80;99.90
21799;DHT22;24973;47.178;15.316;2023-02-02T01:08:40;4.80;99.90
21799;DHT22;24973;47.178;15.316;2023-02-02T01:11:29;4.80;99.90
21799;DHT22;24973;47.178;15.316;2023-02-02T01:14:17;4.80;99.90
21799;DHT22;24973;47.178;15.316;2023-02-02T01:17:06;4.70;99.90
21799;DHT22;24973;47.178;15.316;2023-02-02T01:19:55;4.70;99.90
21799;DHT22;24973;47.178;15.316;2023-02-02T01:22:45;4.70;99.90
21799;DHT22;24973;47.178;15.316;2023-02-02T01:28:25;4.70;99.90
21799;DHT22;24973;47.178;15.316;2023-02-02T01:31:15;4.70;99.90
21799;DHT22;24973;47.178;15.316;2023-02-02T01:34:08;4.60;99.90
21799;DHT22;24973;47.178;15.316;2023-02-02T01:36:56;4.60;99.90
21799;DHT22;24973;47.178;15.316;2023-02-02T01:39:46;4.60;99.90
21799;DHT22;24973;47.178;15.316;2023-02-02T01:42:35;4.50;99.90
21799;DHT22;24973;47.178;15.316;2023-02-02T01:45:25;4.50;99.90
21799;DHT22;24973;47.178;15.316;2023-02-02T01:48:16;4.50;99.90
21799;DHT22;24973;47.178;15.316;2023-02-02T01:51:10;4.30;99.90
21799;DHT22;24973;47.178;15.316;2023-02-02T01:54:02;4.40;99.90
21799;DHT22;24973;47.178;15.316;2023-02-02T01:56:57;4.40;99.90
21799;DHT22;24973;47.178;15.316;2023-02-02T01:59:48;4.40;99.90
21799;DHT22;24973;47.178;15.316;2023-02-02T02:02:40;4.40;99.90
21799;DHT22;24973;47.178;15.316;2023-02-02T02:05:32;4.40;99.90
21799;DHT22;24973;47.178;15.316;2023-02-02T02:08:26;4.30;99.90
21799;DHT22;24973;47.178;15.316;2023-02-02T02:11:17;4.30;99.90
21799;DHT22;24973;47.178;15.316;2023-02-02T02:14:09;4.30;99.90
21799;DHT22;24973;47.178;15.316;2023-02-02T02:17:24;4.30;99.90
21799;DHT22;24973;47.178;15.316;2023-02-02T02:20:57;4.30;99.90
21799;DHT22;24973;47.178;15.316;2023-02-02T02:28:44;4.30;99.90
21799;DHT22;24973;47.178;15.316;2023-02-02T02:31:59;4.40;99.90
21799;DHT22;24973;47.178;15.316;2023-02-02T02:34:54;4.40;99.90
21799;DHT22;24973;47.178;15.316;2023-02-02T02:37:51;4.40;99.90
21799;DHT22;24973;47.178;15.316;2023-02-02T02:40:46;4.50;99.90
21799;DHT22;24973;47.178;15.316;2023-02-02T02:43:42;4.40;99.90
21799;DHT22;24973;47.178;15.316;2023-02-02T02:46:34;4.50;99.90
21799;DHT22;24973;47.178;15.316;2023-02-02T02:49:25;4.30;99.90
21799;DHT22;24973;47.178;15.316;2023-02-02T02:52:14;4.40;99.90
21799;DHT22;24973;47.178;15.316;2023-02-02T02:55:04;4.40;99.90
21799;DHT22;24973;47.178;15.316;2023-02-02T02:58:06;4.40;99.90
21799;DHT22;24973;47.178;15.316;2023-02-02T03:01:02;4.40;99.90
21799;DHT22;24973;47.178;15.316;2023-02-02T03:04:06;4.50;99.90
21799;DHT22;24973;47.178;15.316;2023-02-02T03:07:02;4.40;99.90
21799;DHT22;24973;47.178;15.316;2023-02-02T03:09:55;4.30;99.90
21799;DHT22;24973;47.178;15.316;2023-02-02T03:12:47;4.50;99.90
21799;DHT22;24973;47.178;15.316;2023-02-02T03:15:39;4.50;99.90
21799;DHT22;24973;47.178;15.316;2023-02-02T03:18:30;4.50;99.90
21799;DHT22;24973;47.178;15.316;2023-02-02T03:21:20;4.60;99.90
21799;DHT22;24973;47.178;15.316;2023-02-02T03:24:10;4.60;99.90
21799;DHT22;24973;47.178;15.316;2023-02-02T03:26:58;4.60;99.90
21799;DHT22;24973;47.178;15.316;2023-02-02T03:29:47;4.60;99.90
21799;DHT22;24973;47.178;15.316;2023-02-02T03:32:36;4.60;99.90
21799;DHT22;24973;47.178;15.316;2023-02-02T03:35:25;4.60;99.90
21799;DHT22;24973;47.178;15.316;2023-02-02T03:38:14;4.60;99.90
21799;DHT22;24973;47.178;15.316;2023-02-02T03:41:05;4.60;99.90
21799;DHT22;24973;47.178;15.316;2023-02-02T03:43:53;4.60;99.90
21799;DHT22;24973;47.178;15.316;2023-02-02T03:46:42;4.50;99.90
21799;DHT22;24973;47.178;15.316;2023-02-02T03:49:31;4.50;99.90
21799;DHT22;24973;47.178;15.316;2023-02-02T03:52:19;4.50;99.90
21799;DHT22;24973;47.178;15.316;2023-02-02T03:55:08;4.50;99.90
21799;DHT22;24973;47.178;15.316;2023-02-02T03:57:58;4.40;99.90
21799;DHT22;24973;47.178;15.316;2023-02-02T04:00:47;4.40;99.90
21799;DHT22;24973;47.178;15.316;2023-02-02T04:03:36;4.30;99.90
21799;DHT22;24973;47.178;15.316;2023-02-02T04:06:25;4.30;99.90
21799;DHT22;24973;47.178;15.316;2023-02-02T04:09:14;4.40;99.90
21799;DHT22;24973;47.178;15.316;2023-02-02T04:12:03;4.40;99.90
21799;DHT22;24973;47.178;15.316;2023-02-02T04:14:53;4.40;99.90
21799;DHT22;24973;47.178;15.316;2023-02-02T04:17:42;4.40;99.90
21799;DHT22;24973;47.178;15.316;2023-02-02T04:20:30;4.40;99.90
21799;DHT22;24973;47.178;15.316;2023-02-02T04:23:19;4.50;99.90
21799;DHT22;24973;47.178;15.316;2023-02-02T04:26:08;4.40;99.90
21799;DHT22;24973;47.178;15.316;2023-02-02T04:28:56;4.40;99.90
21799;DHT22;24973;47.178;15.316;2023-02-02T04:31:46;4.40;99.90
21799;DHT22;24973;47.178;15.316;2023-02-02T04:34:35;4.40;99.90
21799;DHT22;24973;47.178;15.316;2023-02-02T04:37:25;4.30;99.90
21799;DHT22;24973;47.178;15.316;2023-02-02T04:40:14;4.30;99.90
21799;DHT22;24973;47.178;15.316;2023-02-02T04:43:02;4.30;99.90
21799;DHT22;24973;47.178;15.316;2023-02-02T04:45:54;4.20;99.90
21799;DHT22;24973;47.178;15.316;2023-02-02T04:48:47;4.20;99.90
21799;DHT22;24973;47.178;15.316;2023-02-02T04:51:36;4.10;99.90
21799;DHT22;24973;47.178;15.316;2023-02-02T04:54:25;4.20;99.90
21799;DHT22;24973;47.178;15.316;2023-02-02T04:57:14;4.20;99.90
21799;DHT22;24973;47.178;15.316;2023-02-02T05:00:04;4.10;99.90
21799;DHT22;24973;47.178;15.316;2023-02-02T05:02:54;4.10;99.90
21799;DHT22;24973;47.178;15.316;2023-02-02T05:05:44;4.00;99.90
21799;DHT22;24973;47.178;15.316;2023-02-02T05:08:32;4.00;99.90
21799;DHT22;24973;47.178;15.316;2023-02-02T05:11:22;3.90;99.90
21799;DHT22;24973;47.178;15.316;2023-02-02T05:17:04;3.70;99.90
21799;DHT22;24973;47.178;15.316;2023-02-02T05:19:53;3.70;99.90
21799;DHT22;24973;47.178;15.316;2023-02-02T05:22:43;3.70;99.90
21799;DHT22;24973;47.178;15.316;2023-02-02T05:25:31;3.60;99.90
21799;DHT22;24973;47.178;15.316;2023-02-02T05:28:20;3.60;99.90
21799;DHT22;24973;47.178;15.316;2023-02-02T05:31:09;3.50;99.90
21799;DHT22;24973;47.178;15.316;2023-02-02T05:33:58;3.50;99.90
21799;DHT22;24973;47.178;15.316;2023-02-02T05:36:47;3.30;99.90
21799;DHT22;24973;47.178;15.316;2023-02-02T05:39:38;3.30;99.90
21799;DHT22;24973;47.178;15.316;2023-02-02T05:42:27;3.20;99.90
21799;DHT22;24973;47.178;15.316;2023-02-02T05:45:15;3.20;99.90
21799;DHT22;24973;47.178;15.316;2023-02-02T05:48:05;3.10;99.90
21799;DHT22;24973;47.178;15.316;2023-02-02T05:50:58;3.00;99.90
21799;DHT22;24973;47.178;15.316;2023-02-02T05:56:39;2.90;99.90
21799;DHT22;24973;47.178;15.316;2023-02-02T05:59:27;2.80;99.90
21799;DHT22;24973;47.178;15.316;2023-02-02T06:02:16;2.70;99.90
21799;DHT22;24973;47.178;15.316;2023-02-02T06:05:06;2.70;99.90
21799;DHT22;24973;47.178;15.316;2023-02-02T06:07:55;2.60;99.90
21799;DHT22;24973;47.178;15.316;2023-02-02T06:13:34;2.50;99.90
21799;DHT22;24973;47.178;15.316;2023-02-02T06:19:12;2.10;99.90
21799;DHT22;24973;47.178;15.316;2023-02-02T06:22:00;2.10;99.90
21799;DHT22;24973;47.178;15.316;2023-02-02T06:24:49;2.20;99.90
21799;DHT22;24973;47.178;15.316;2023-02-02T06:27:39;2.10;99.90
21799;DHT22;24973;47.178;15.316;2023-02-02T06:30:29;1.80;99.90
21799;DHT22;24973;47.178;15.316;2023-02-02T06:33:18;2.00;99.90
21799;DHT22;24973;47.178;15.316;2023-02-02T06:36:07;1.80;99.90
21799;DHT22;24973;47.178;15.316;2023-02-02T06:38:56;1.80;99.90
21799;DHT22;24973;47.178;15.316;2023-02-02T06:41:45;1.90;99.90
21799;DHT22;24973;47.178;15.316;2023-02-02T06:44:34;1.70;99.90
21799;DHT22;24973;47.178;15.316;2023-02-02T06:47:24;1.70;99.90
21799;DHT22;24973;47.178;15.316;2023-02-02T06:50:13;1.70;99.90
21799;DHT22;24973;47.178;15.316;2023-02-02T06:55:54;1.70;99.90
21799;DHT22;24973;47.178;15.316;2023-02-02T06:58:43;1.70;99.90
21799;DHT22;24973;47.178;15.316;2023-02-02T07:01:32;1.70;99.90
21799;DHT22;24973;47.178;15.316;2023-02-02T07:04:22;1.90;99.90
21799;DHT22;24973;47.178;15.316;2023-02-02T07:07:11;1.70;99.90
21799;DHT22;24973;47.178;15.316;2023-02-02T07:10:00;1.70;99.90
21799;DHT22;24973;47.178;15.316;2023-02-02T07:12:48;2.10;99.90
21799;DHT22;24973;47.178;15.316;2023-02-02T07:15:38;1.80;99.90
21799;DHT22;24973;47.178;15.316;2023-02-02T07:18:27;1.80;99.90
21799;DHT22;24973;47.178;15.316;2023-02-02T07:21:20;1.80;99.90
21799;DHT22;24973;47.178;15.316;2023-02-02T07:24:10;1.90;99.90
21799;DHT22;24973;47.178;15.316;2023-02-02T07:26:59;2.00;99.90
21799;DHT22;24973;47.178;15.316;2023-02-02T07:38:16;2.10;99.90
21799;DHT22;24973;47.178;15.316;2023-02-02T07:41:04;2.00;99.90
21799;DHT22;24973;47.178;15.316;2023-02-02T07:43:53;2.00;99.90
21799;DHT22;24973;47.178;15.316;2023-02-02T07:46:42;1.90;99.90
21799;DHT22;24973;47.178;15.316;2023-02-02T07:49:33;2.20;99.90
21799;DHT22;24973;47.178;15.316;2023-02-02T07:52:22;2.00;99.90
21799;DHT22;24973;47.178;15.316;2023-02-02T07:55:12;2.10;99.90
21799;DHT22;24973;47.178;15.316;2023-02-02T07:58:01;2.10;99.90
21799;DHT22;24973;47.178;15.316;2023-02-02T08:00:50;2.10;99.90
21799;DHT22;24973;47.178;15.316;2023-02-02T08:03:39;2.10;99.90
21799;DHT22;24973;47.178;15.316;2023-02-02T08:06:30;2.00;99.90
21799;DHT22;24973;47.178;15.316;2023-02-02T08:09:20;2.30;99.90
21799;DHT22;24973;47.178;15.316;2023-02-02T08:12:10;2.10;99.90
21799;DHT22;24973;47.178;15.316;2023-02-02T08:17:48;2.20;99.90
21799;DHT22;24973;47.178;15.316;2023-02-02T08:20:37;2.20;99.90
21799;DHT22;24973;47.178;15.316;2023-02-02T08:23:26;2.40;99.90
21799;DHT22;24973;47.178;15.316;2023-02-02T08:26:17;2.20;99.90
21799;DHT22;24973;47.178;15.316;2023-02-02T08:29:11;2.20;99.90
21799;DHT22;24973;47.178;15.316;2023-02-02T08:32:04;2.10;99.90
21799;DHT22;24973;47.178;15.316;2023-02-02T08:34:52;2.10;99.90
21799;DHT22;24973;47.178;15.316;2023-02-02T08:43:19;2.00;99.90
21799;DHT22;24973;47.178;15.316;2023-02-02T08:46:11;2.00;99.90
21799;DHT22;24973;47.178;15.316;2023-02-02T08:49:01;2.10;99.90
21799;DHT22;24973;47.178;15.316;2023-02-02T08:51:49;2.30;99.90
21799;DHT22;24973;47.178;15.316;2023-02-02T08:57:27;2.20;99.90
21799;DHT22;24973;47.178;15.316;2023-02-02T09:00:19;2.20;99.90
21799;DHT22;24973;47.178;15.316;2023-02-02T09:03:09;2.20;99.90
21799;DHT22;24973;47.178;15.316;2023-02-02T09:06:03;2.20;99.90
21799;DHT22;24973;47.178;15.316;2023-02-02T09:08:52;2.10;99.90
21799;DHT22;24973;47.178;15.316;2023-02-02T09:11:41;2.10;99.90
21799;DHT22;24973;47.178;15.316;2023-02-02T09:14:30;2.20;99.90
21799;DHT22;24973;47.178;15.316;2023-02-02T09:17:19;2.10;99.90
21799;DHT22;24973;47.178;15.316;2023-02-02T09:20:11;2.30;99.90
21799;DHT22;24973;47.178;15.316;2023-02-02T09:23:00;2.30;99.90
21799;DHT22;24973;47.178;15.316;2023-02-02T09:28:39;2.30;99.90
21799;DHT22;24973;47.178;15.316;2023-02-02T09:31:29;2.40;99.90
21799;DHT22;24973;47.178;15.316;2023-02-02T09:37:10;2.40;99.90
21799;DHT22;24973;47.178;15.316;2023-02-02T09:42:55;2.30;99.90
21799;DHT22;24973;47.178;15.316;2023-02-02T09:45:56;2.30;99.90
21799;DHT22;24973;47.178;15.316;2023-02-02T09:48:56;2.30;99.90
21799;DHT22;24973;47.178;15.316;2023-02-02T09:51:53;2.40;99.90
21799;DHT22;24973;47.178;15.316;2023-02-02T09:54:48;2.30;99.90
21799;DHT22;24973;47.178;15.316;2023-02-02T09:57:41;2.40;99.90
21799;DHT22;24973;47.178;15.316;2023-02-02T10:00:35;2.40;99.90
21799;DHT22;24973;47.178;15.316;2023-02-02T10:03:29;2.50;99.90
21799;DHT22;24973;47.178;15.316;2023-02-02T10:06:31;2.50;99.90
21799;DHT22;24973;47.178;15.316;2023-02-02T10:09:30;2.60;99.90
21799;DHT22;24973;47.178;15.316;2023-02-02T10:12:30;2.60;99.90
21799;DHT22;24973;47.178;15.316;2023-02-02T10:15:28;2.60;99.90
21799;DHT22;24973;47.178;15.316;2023-02-02T10:18:28;2.70;99.90
21799;DHT22;24973;47.178;15.316;2023-02-02T10:21:28;2.70;99.90
21799;DHT22;24973;47.178;15.316;2023-02-02T10:24:23;2.80;99.90
21799;DHT22;24973;47.178;15.316;2023-02-02T10:27:16;2.80;99.90
21799;DHT22;24973;47.178;15.316;2023-02-02T10:30:17;2.80;99.90
21799;DHT22;24973;47.178;15.316;2023-02-02T10:33:11;2.80;99.90
21799;DHT22;24973;47.178;15.316;2023-02-02T10:36:12;2.90;99.90
21799;DHT22;24973;47.178;15.316;2023-02-02T10:39:16;3.00;99.90
21799;DHT22;24973;47.178;15.316;2023-02-02T10:42:19;3.00;99.90
21799;DHT22;24973;47.178;15.316;2023-02-02T10:45:17;3.00;99.90
21799;DHT22;24973;47.178;15.316;2023-02-02T10:48:13;3.00;99.90
21799;DHT22;24973;47.178;15.316;2023-02-02T10:51:11;2.90;99.90
21799;DHT22;24973;47.178;15.316;2023-02-02T10:54:19;2.90;99.90
21799;DHT22;24973;47.178;15.316;2023-02-02T10:57:23;3.00;99.90
21799;DHT22;24973;47.178;15.316;2023-02-02T11:00:22;3.00;99.90
21799;DHT22;24973;47.178;15.316;2023-02-02T11:03:15;3.00;99.90
21799;DHT22;24973;47.178;15.316;2023-02-02T11:06:07;3.00;99.90
21799;DHT22;24973;47.178;15.316;2023-02-02T11:12:05;1.00;99.90
21799;DHT22;24973;47.178;15.316;2023-02-02T11:15:03;3.30;99.90
21799;DHT22;24973;47.178;15.316;2023-02-02T11:18:12;3.40;99.90
21799;DHT22;24973;47.178;15.316;2023-02-02T11:21:02;3.60;99.90
21799;DHT22;24973;47.178;15.316;2023-02-02T11:24:06;3.50;99.90
21799;DHT22;24973;47.178;15.316;2023-02-02T11:27:12;3.60;99.90
21799;DHT22;24973;47.178;15.316;2023-02-02T11:30:11;3.60;99.90
21799;DHT22;24973;47.178;15.316;2023-02-02T11:33:26;3.70;99.90
21799;DHT22;24973;47.178;15.316;2023-02-02T11:36:18;3.70;99.90
21799;DHT22;24973;47.178;15.316;2023-02-02T11:39:17;4.00;99.90
21799;DHT22;24973;47.178;15.316;2023-02-02T11:42:13;3.60;99.90
21799;DHT22;24973;47.178;15.316;2023-02-02T11:50:51;3.70;99.90
21799;DHT22;24973;47.178;15.316;2023-02-02T11:53:44;3.70;99.90
21799;DHT22;24973;47.178;15.316;2023-02-02T11:56:36;6.50;99.90
21799;DHT22;24973;47.178;15.316;2023-02-02T11:59:29;3.70;99.90
21799;DHT22;24973;47.178;15.316;2023-02-02T12:02:28;3.70;99.90
21799;DHT22;24973;47.178;15.316;2023-02-02T12:05:33;4.00;99.90
21799;DHT22;24973;47.178;15.316;2023-02-02T12:08:25;3.80;99.90
21799;DHT22;24973;47.178;15.316;2023-02-02T12:11:27;3.90;99.90
21799;DHT22;24973;47.178;15.316;2023-02-02T12:14:33;3.90;99.90
21799;DHT22;24973;47.178;15.316;2023-02-02T12:17:33;4.10;99.90
21799;DHT22;24973;47.178;15.316;2023-02-02T12:20:32;3.90;99.90
21799;DHT22;24973;47.178;15.316;2023-02-02T12:23:52;4.10;99.90
21799;DHT22;24973;47.178;15.316;2023-02-02T12:26:52;4.00;99.90
21799;DHT22;24973;47.178;15.316;2023-02-02T12:30:09;3.90;99.90
21799;DHT22;24973;47.178;15.316;2023-02-02T12:33:14;4.10;99.90
21799;DHT22;24973;47.178;15.316;2023-02-02T12:36:24;3.90;99.90
21799;DHT22;24973;47.178;15.316;2023-02-02T12:39:22;4.00;99.90
21799;DHT22;24973;47.178;15.316;2023-02-02T12:42:35;3.80;99.90
21799;DHT22;24973;47.178;15.316;2023-02-02T12:45:41;3.70;99.90
21799;DHT22;24973;47.178;15.316;2023-02-02T12:48:42;3.90;99.90
21799;DHT22;24973;47.178;15.316;2023-02-02T12:51:51;3.80;99.90
21799;DHT22;24973;47.178;15.316;2023-02-02T12:55:06;3.90;99.90
21799;DHT22;24973;47.178;15.316;2023-02-02T12:58:09;3.70;99.90
21799;DHT22;24973;47.178;15.316;2023-02-02T13:01:19;3.70;99.90
21799;DHT22;24973;47.178;15.316;2023-02-02T13:04:41;3.80;99.90
21799;DHT22;24973;47.178;15.316;2023-02-02T13:07:39;3.70;99.90
21799;DHT22;24973;47.178;15.316;2023-02-02T13:10:34;4.10;99.90
21799;DHT22;24973;47.178;15.316;2023-02-02T13:13:30;3.90;99.90
21799;DHT22;24973;47.178;15.316;2023-02-02T13:16:21;3.80;99.90
21799;DHT22;24973;47.178;15.316;2023-02-02T13:19:14;2.60;99.90
21799;DHT22;24973;47.178;15.316;2023-02-02T13:22:09;3.90;99.90
21799;DHT22;24973;47.178;15.316;2023-02-02T13:25:05;3.70;99.90
21799;DHT22;24973;47.178;15.316;2023-02-02T13:27:59;4.10;99.90
21799;DHT22;24973;47.178;15.316;2023-02-02T13:30:49;3.90;99.90
21799;DHT22;24973;47.178;15.316;2023-02-02T13:33:41;4.00;99.90
21799;DHT22;24973;47.178;15.316;2023-02-02T13:36:34;4.00;99.90
21799;DHT22;24973;47.178;15.316;2023-02-02T13:39:31;4.00;99.90
21799;DHT22;24973;47.178;15.316;2023-02-02T13:42:27;3.70;99.90
21799;DHT22;24973;47.178;15.316;2023-02-02T13:45:34;3.70;99.90
21799;DHT22;24973;47.178;15.316;2023-02-02T13:48:34;3.70;99.90
21799;DHT22;24973;47.178;15.316;2023-02-02T13:55:29;3.70;99.90
21799;DHT22;24973;47.178;15.316;2023-02-02T14:01:50;4.00;99.90
21799;DHT22;24973;47.178;15.316;2023-02-02T14:07:36;3.60;99.90
21799;DHT22;24973;47.178;15.316;2023-02-02T14:10:30;3.60;99.90
21799;DHT22;24973;47.178;15.316;2023-02-02T14:13:24;3.50;99.90
21799;DHT22;24973;47.178;15.316;2023-02-02T14:16:47;3.60;99.90
21799;DHT22;24973;47.178;15.316;2023-02-02T14:19:54;3.50;99.90
21799;DHT22;24973;47.178;15.316;2023-02-02T14:22:45;3.30;99.90
21799;DHT22;24973;47.178;15.316;2023-02-02T14:25:59;3.40;99.90
21799;DHT22;24973;47.178;15.316;2023-02-02T14:31:53;3.40;99.90
21799;DHT22;24973;47.178;15.316;2023-02-02T14:37:41;3.30;99.90
21799;DHT22;24973;47.178;15.316;2023-02-02T14:40:44;3.40;99.90
21799;DHT22;24973;47.178;15.316;2023-02-02T14:43:41;3.30;99.90
21799;DHT22;24973;47.178;15.316;2023-02-02T14:46:37;3.30;99.90
21799;DHT22;24973;47.178;15.316;2023-02-02T14:49:48;3.40;99.90
21799;DHT22;24973;47.178;15.316;2023-02-02T14:57:37;3.30;99.90
21799;DHT22;24973;47.178;15.316;2023-02-02T15:00:35;3.40;99.90
21799;DHT22;24973;47.178;15.316;2023-02-02T15:03:46;3.30;99.90
21799;DHT22;24973;47.178;15.316;2023-02-02T15:06:46;3.20;99.90
21799;DHT22;24973;47.178;15.316;2023-02-02T15:12:36;3.20;99.90
21799;DHT22;24973;47.178;15.316;2023-02-02T15:15:28;3.20;99.90
21799;DHT22;24973;47.178;15.316;2023-02-02T15:18:25;3.20;99.90
21799;DHT22;24973;47.178;15.316;2023-02-02T15:21:30;3.10;99.90
21799;DHT22;24973;47.178;15.316;2023-02-02T15:24:31;3.00;99.90
21799;DHT22;24973;47.178;15.316;2023-02-02T15:27:23;3.10;99.90
21799;DHT22;24973;47.178;15.316;2023-02-02T15:30:15;3.10;99.90
21799;DHT22;24973;47.178;15.316;2023-02-02T15:33:14;3.20;99.90
21799;DHT22;24973;47.178;15.316;2023-02-02T15:36:16;3.20;99.90
21799;DHT22;24973;47.178;15.316;2023-02-02T15:39:12;3.20;99.90
21799;DHT22;24973;47.178;15.316;2023-02-02T15:42:16;3.20;99.90
21799;DHT22;24973;47.178;15.316;2023-02-02T15:45:42;4.00;99.90
21799;DHT22;24973;47.178;15.316;2023-02-02T15:51:27;3.10;99.90
21799;DHT22;24973;47.178;15.316;2023-02-02T15:54:22;3.10;99.90
21799;DHT22;24973;47.178;15.316;2023-02-02T15:57:29;3.10;99.90
21799;DHT22;24973;47.178;15.316;2023-02-02T16:00:24;3.10;99.90
21799;DHT22;24973;47.178;15.316;2023-02-02T16:03:21;3.00;99.90
21799;DHT22;24973;47.178;15.316;2023-02-02T16:06:19;3.00;99.90
21799;DHT22;24973;47.178;15.316;2023-02-02T16:09:23;3.00;99.90
21799;DHT22;24973;47.178;15.316;2023-02-02T16:12:14;3.20;99.90
21799;DHT22;24973;47.178;15.316;2023-02-02T16:15:18;3.00;99.90
21799;DHT22;24973;47.178;15.316;2023-02-02T16:18:12;3.00;99.90
21799;DHT22;24973;47.178;15.316;2023-02-02T16:21:08;2.90;99.90
21799;DHT22;24973;47.178;15.316;2023-02-02T16:24:04;3.00;99.90
21799;DHT22;24973;47.178;15.316;2023-02-02T16:26:57;3.00;99.90
21799;DHT22;24973;47.178;15.316;2023-02-02T16:29:48;2.90;99.90
21799;DHT22;24973;47.178;15.316;2023-02-02T16:32:38;3.00;99.90
21799;DHT22;24973;47.178;15.316;2023-02-02T16:35:37;3.00;99.90
21799;DHT22;24973;47.178;15.316;2023-02-02T16:38:31;2.90;99.90
21799;DHT22;24973;47.178;15.316;2023-02-02T16:41:29;2.90;99.90
21799;DHT22;24973;47.178;15.316;2023-02-02T16:44:29;2.80;99.90
21799;DHT22;24973;47.178;15.316;2023-02-02T16:47:35;2.80;99.90
21799;DHT22;24973;47.178;15.316;2023-02-02T16:50:28;2.80;99.90
21799;DHT22;24973;47.178;15.316;2023-02-02T16:53:21;2.80;99.90
21799;DHT22;24973;47.178;15.316;2023-02-02T16:56:21;2.80;99.90
21799;DHT22;24973;47.178;15.316;2023-02-02T16:59:17;2.80;99.90
21799;DHT22;24973;47.178;15.316;2023-02-02T17:02:19;2.80;99.90
21799;DHT22;24973;47.178;15.316;2023-02-02T17:05:19;2.70;99.90
21799;DHT22;24973;47.178;15.316;2023-02-02T17:08:10;2.70;99.90
21799;DHT22;24973;47.178;15.316;2023-02-02T17:11:04;2.80;99.90
21799;DHT22;24973;47.178;15.316;2023-02-02T17:13:55;2.70;99.90
21799;DHT22;24973;47.178;15.316;2023-02-02T17:16:43;2.70;99.90
21799;DHT22;24973;47.178;15.316;2023-02-02T17:19:32;2.70;99.90
21799;DHT22;24973;47.178;15.316;2023-02-02T17:22:24;2.70;99.90
21799;DHT22;24973;47.178;15.316;2023-02-02T17:25:14;2.70;99.90
21799;DHT22;24973;47.178;15.316;2023-02-02T17:28:08;2.70;99.90
21799;DHT22;24973;47.178;15.316;2023-02-02T17:31:00;2.90;99.90
21799;DHT22;24973;47.178;15.316;2023-02-02T17:33:50;2.70;99.90
21799;DHT22;24973;47.178;15.316;2023-02-02T17:36:38;2.70;99.90
21799;DHT22;24973;47.178;15.316;2023-02-02T17:39:29;2.70;99.90
21799;DHT22;24973;47.178;15.316;2023-02-02T17:42:22;2.80;99.90
21799;DHT22;24973;47.178;15.316;2023-02-02T17:45:15;2.70;99.90
21799;DHT22;24973;47.178;15.316;2023-02-02T17:48:05;2.80;99.90
21799;DHT22;24973;47.178;15.316;2023-02-02T17:50:56;2.80;99.90
21799;DHT22;24973;47.178;15.316;2023-02-02T17:53:45;2.80;99.90
21799;DHT22;24973;47.178;15.316;2023-02-02T17:56:35;2.80;99.90
21799;DHT22;24973;47.178;15.316;2023-02-02T17:59:24;2.80;99.90
21799;DHT22;24973;47.178;15.316;2023-02-02T18:02:14;2.90;99.90
21799;DHT22;24973;47.178;15.316;2023-02-02T18:05:03;2.80;99.90
21799;DHT22;24973;47.178;15.316;2023-02-02T18:07:53;2.80;99.90
21799;DHT22;24973;47.178;15.316;2023-02-02T18:10:42;2.80;99.90
21799;DHT22;24973;47.178;15.316;2023-02-02T18:13:33;2.80;99.90
21799;DHT22;24973;47.178;15.316;2023-02-02T18:16:21;2.80;99.90
21799;DHT22;24973;47.178;15.316;2023-02-02T18:19:10;2.80;99.90
21799;DHT22;24973;47.178;15.316;2023-02-02T18:21:59;2.80;99.90
21799;DHT22;24973;47.178;15.316;2023-02-02T18:24:48;2.80;99.90
21799;DHT22;24973;47.178;15.316;2023-02-02T18:27:37;2.80;99.90
21799;DHT22;24973;47.178;15.316;2023-02-02T18:30:27;2.80;99.90
21799;DHT22;24973;47.178;15.316;2023-02-02T18:33:16;2.70;99.90
21799;DHT22;24973;47.178;15.316;2023-02-02T18:36:08;2.70;99.90
21799;DHT22;24973;47.178;15.316;2023-02-02T18:38:59;2.70;99.90
21799;DHT22;24973;47.178;15.316;2023-02-02T18:41:47;2.60;99.90
21799;DHT22;24973;47.178;15.316;2023-02-02T18:44:36;2.60;99.90
21799;DHT22;24973;47.178;15.316;2023-02-02T18:47:26;2.60;99.90
21799;DHT22;24973;47.178;15.316;2023-02-02T18:50:16;2.60;99.90
21799;DHT22;24973;47.178;15.316;2023-02-02T18:53:05;2.50;99.90
21799;DHT22;24973;47.178;15.316;2023-02-02T18:55:54;2.50;99.90
21799;DHT22;24973;47.178;15.316;2023-02-02T18:58:43;2.50;99.90
21799;DHT22;24973;47.178;15.316;2023-02-02T19:01:32;2.50;99.90
21799;DHT22;24973;47.178;15.316;2023-02-02T19:04:25;2.60;99.90
21799;DHT22;24973;47.178;15.316;2023-02-02T19:07:13;2.40;99.90
21799;DHT22;24973;47.178;15.316;2023-02-02T19:10:20;2.40;99.90
21799;DHT22;24973;47.178;15.316;2023-02-02T19:13:14;2.40;99.90
21799;DHT22;24973;47.178;15.316;2023-02-02T19:16:11;2.60;99.90
21799;DHT22;24973;47.178;15.316;2023-02-02T19:19:10;2.40;99.90
21799;DHT22;24973;47.178;15.316;2023-02-02T19:22:08;2.40;99.90
21799;DHT22;24973;47.178;15.316;2023-02-02T19:25:09;2.40;99.90
21799;DHT22;24973;47.178;15.316;2023-02-02T19:28:01;2.30;99.90
21799;DHT22;24973;47.178;15.316;2023-02-02T19:30:53;2.30;99.90
21799;DHT22;24973;47.178;15.316;2023-02-02T19:33:46;2.30;99.90
21799;DHT22;24973;47.178;15.316;2023-02-02T19:36:36;2.30;99.90
21799;DHT22;24973;47.178;15.316;2023-02-02T19:39:29;2.20;99.90
21799;DHT22;24973;47.178;15.316;2023-02-02T19:42:19;2.10;99.90